sensor_id;sensor_type;location;lat;lon;timestamp;P1;durP1;ratioP1;P2;durP2;ratioP2
47896;SDS011;39629;51.400;5.494;2023-04-15T00:04:56;5.22;;;2.72;;
47896;SDS011;39629;51.400;5.494;2023-04-15T00:09:58;7.03;;;3.45;;
47896;SDS011;39629;51.400;5.494;2023-04-15T00:15:01;9.18;;;3.05;;
47896;SDS011;39629;51.400;5.494;2023-04-15T00:20:03;5.50;;;3.00;;
47896;SDS011;39629;51.400;5.494;2023-04-15T00:25:07;5.00;;;2.50;;
47896;SDS011;39629;51.400;5.494;2023-04-15T00:30:11;7.40;;;3.00;;
47896;SDS011;39629;51.400;5.494;2023-04-15T00:35:13;9.02;;;3.25;;
47896;SDS011;39629;51.400;5.494;2023-04-15T00:40:15;8.88;;;3.80;;
47896;SDS011;39629;51.400;5.494;2023-04-15T00:50:22;6.03;;;3.30;;
47896;SDS011;39629;51.400;5.494;2023-04-15T00:55:24;5.78;;;2.85;;
47896;SDS011;39629;51.400;5.494;2023-04-15T01:00:27;12.55;;;3.60;;
47896;SDS011;39629;51.400;5.494;2023-04-15T01:05:29;7.70;;;3.58;;
47896;SDS011;39629;51.400;5.494;2023-04-15T01:10:31;9.13;;;3.15;;
47896;SDS011;39629;51.400;5.494;2023-04-15T01:15:35;8.30;;;3.28;;
47896;SDS011;39629;51.400;5.494;2023-04-15T01:20:37;7.88;;;3.45;;
47896;SDS011;39629;51.400;5.494;2023-04-15T01:25:41;7.35;;;3.67;;
47896;SDS011;39629;51.400;5.494;2023-04-15T01:30:44;13.07;;;4.80;;
47896;SDS011;39629;51.400;5.494;2023-04-15T01:35:48;8.48;;;4.45;;
47896;SDS011;39629;51.400;5.494;2023-04-15T01:40:51;8.90;;;4.60;;
47896;SDS011;39629;51.400;5.494;2023-04-15T01:45:53;12.90;;;5.03;;
47896;SDS011;39629;51.400;5.494;2023-04-15T01:50:54;13.25;;;4.88;;
47896;SDS011;39629;51.400;5.494;2023-04-15T01:55:58;7.47;;;3.85;;
47896;SDS011;39629;51.400;5.494;2023-04-15T02:01:00;7.18;;;4.28;;
47896;SDS011;39629;51.400;5.494;2023-04-15T02:06:05;8.02;;;4.13;;
47896;SDS011;39629;51.400;5.494;2023-04-15T02:11:08;9.68;;;4.35;;
47896;SDS011;39629;51.400;5.494;2023-04-15T02:16:16;7.32;;;4.32;;
47896;SDS011;39629;51.400;5.494;2023-04-15T02:21:18;10.32;;;4.38;;
47896;SDS011;39629;51.400;5.494;2023-04-15T02:26:21;9.30;;;4.65;;
47896;SDS011;39629;51.400;5.494;2023-04-15T02:31:24;8.60;;;4.85;;
47896;SDS011;39629;51.400;5.494;2023-04-15T02:36:26;9.20;;;5.10;;
47896;SDS011;39629;51.400;5.494;2023-04-15T02:41:30;9.77;;;5.80;;
47896;SDS011;39629;51.400;5.494;2023-04-15T02:46:32;12.07;;;6.10;;
47896;SDS011;39629;51.400;5.494;2023-04-15T02:51:34;9.98;;;5.93;;
47896;SDS011;39629;51.400;5.494;2023-04-15T02:56:37;13.68;;;6.50;;
47896;SDS011;39629;51.400;5.494;2023-04-15T03:01:38;10.52;;;5.55;;
47896;SDS011;39629;51.400;5.494;2023-04-15T03:06:40;10.30;;;4.70;;
47896;SDS011;39629;51.400;5.494;2023-04-15T03:11:44;12.02;;;6.10;;
47896;SDS011;39629;51.400;5.494;2023-04-15T03:16:46;11.68;;;6.90;;
47896;SDS011;39629;51.400;5.494;2023-04-15T03:21:50;13.93;;;6.53;;
47896;SDS011;39629;51.400;5.494;2023-04-15T03:26:54;12.85;;;6.20;;
47896;SDS011;39629;51.400;5.494;2023-04-15T03:31:56;10.68;;;6.38;;
47896;SDS011;39629;51.400;5.494;2023-04-15T03:36:59;11.15;;;5.85;;
47896;SDS011;39629;51.400;5.494;2023-04-15T03:42:02;10.25;;;5.82;;
47896;SDS011;39629;51.400;5.494;2023-04-15T03:47:04;13.07;;;7.00;;
47896;SDS011;39629;51.400;5.494;2023-04-15T03:52:06;13.07;;;7.07;;
47896;SDS011;39629;51.400;5.494;2023-04-15T03:57:09;8.85;;;4.85;;
47896;SDS011;39629;51.400;5.494;2023-04-15T04:02:11;14.32;;;7.35;;
47896;SDS011;39629;51.400;5.494;2023-04-15T04:07:14;12.05;;;6.63;;
47896;SDS011;39629;51.400;5.494;2023-04-15T04:12:17;12.25;;;7.05;;
47896;SDS011;39629;51.400;5.494;2023-04-15T04:17:18;13.77;;;7.22;;
47896;SDS011;39629;51.400;5.494;2023-04-15T04:22:21;12.45;;;6.03;;
47896;SDS011;39629;51.400;5.494;2023-04-15T04:27:25;11.52;;;6.57;;
47896;SDS011;39629;51.400;5.494;2023-04-15T04:32:26;12.30;;;7.50;;
47896;SDS011;39629;51.400;5.494;2023-04-15T04:37:28;12.75;;;6.85;;
47896;SDS011;39629;51.400;5.494;2023-04-15T04:42:31;11.63;;;5.88;;
47896;SDS011;39629;51.400;5.494;2023-04-15T04:47:32;17.50;;;7.35;;
47896;SDS011;39629;51.400;5.494;2023-04-15T04:52:34;12.45;;;6.28;;
47896;SDS011;39629;51.400;5.494;2023-04-15T04:57:37;11.38;;;6.68;;
47896;SDS011;39629;51.400;5.494;2023-04-15T05:02:39;11.73;;;6.55;;
47896;SDS011;39629;51.400;5.494;2023-04-15T05:07:43;12.02;;;6.55;;
47896;SDS011;39629;51.400;5.494;2023-04-15T05:12:45;13.02;;;6.90;;
47896;SDS011;39629;51.400;5.494;2023-04-15T05:17:47;11.68;;;6.80;;
47896;SDS011;39629;51.400;5.494;2023-04-15T05:22:49;12.00;;;6.88;;
47896;SDS011;39629;51.400;5.494;2023-04-15T05:27:52;11.63;;;6.22;;
47896;SDS011;39629;51.400;5.494;2023-04-15T05:32:53;12.15;;;6.60;;
47896;SDS011;39629;51.400;5.494;2023-04-15T05:37:55;11.98;;;7.10;;
47896;SDS011;39629;51.400;5.494;2023-04-15T05:42:58;13.13;;;6.40;;
47896;SDS011;39629;51.400;5.494;2023-04-15T05:47:59;12.13;;;6.80;;
47896;SDS011;39629;51.400;5.494;2023-04-15T05:53:01;12.10;;;6.93;;
47896;SDS011;39629;51.400;5.494;2023-04-15T05:58:04;12.05;;;7.30;;
47896;SDS011;39629;51.400;5.494;2023-04-15T06:03:05;11.13;;;6.55;;
47896;SDS011;39629;51.400;5.494;2023-04-15T06:08:07;14.25;;;7.00;;
47896;SDS011;39629;51.400;5.494;2023-04-15T06:13:10;13.40;;;6.97;;
47896;SDS011;39629;51.400;5.494;2023-04-15T06:18:12;13.73;;;7.28;;
47896;SDS011;39629;51.400;5.494;2023-04-15T06:23:13;13.88;;;7.40;;
47896;SDS011;39629;51.400;5.494;2023-04-15T06:28:16;14.60;;;7.30;;
47896;SDS011;39629;51.400;5.494;2023-04-15T06:33:18;15.90;;;7.70;;
47896;SDS011;39629;51.400;5.494;2023-04-15T06:38:20;13.77;;;7.43;;
47896;SDS011;39629;51.400;5.494;2023-04-15T06:43:23;11.73;;;6.50;;
47896;SDS011;39629;51.400;5.494;2023-04-15T06:48:24;13.05;;;6.80;;
47896;SDS011;39629;51.400;5.494;2023-04-15T06:53:26;13.45;;;7.03;;
47896;SDS011;39629;51.400;5.494;2023-04-15T06:58:29;12.00;;;6.50;;
47896;SDS011;39629;51.400;5.494;2023-04-15T07:03:31;11.30;;;7.45;;
47896;SDS011;39629;51.400;5.494;2023-04-15T07:08:32;11.65;;;6.45;;
47896;SDS011;39629;51.400;5.494;2023-04-15T07:13:35;12.55;;;6.82;;
47896;SDS011;39629;51.400;5.494;2023-04-15T07:18:37;12.25;;;6.38;;
47896;SDS011;39629;51.400;5.494;2023-04-15T07:23:38;10.27;;;6.22;;
47896;SDS011;39629;51.400;5.494;2023-04-15T07:28:41;12.18;;;6.55;;
47896;SDS011;39629;51.400;5.494;2023-04-15T07:33:45;10.93;;;5.68;;
47896;SDS011;39629;51.400;5.494;2023-04-15T07:38:47;10.23;;;5.72;;
47896;SDS011;39629;51.400;5.494;2023-04-15T07:43:49;8.50;;;5.10;;
47896;SDS011;39629;51.400;5.494;2023-04-15T07:48:51;10.93;;;5.05;;
47896;SDS011;39629;51.400;5.494;2023-04-15T07:53:53;7.88;;;4.30;;
47896;SDS011;39629;51.400;5.494;2023-04-15T07:58:56;6.20;;;4.10;;
47896;SDS011;39629;51.400;5.494;2023-04-15T08:03:58;5.90;;;3.90;;
47896;SDS011;39629;51.400;5.494;2023-04-15T08:08:59;6.35;;;3.75;;
47896;SDS011;39629;51.400;5.494;2023-04-15T08:14:02;7.72;;;3.95;;
47896;SDS011;39629;51.400;5.494;2023-04-15T08:19:04;8.45;;;3.58;;
47896;SDS011;39629;51.400;5.494;2023-04-15T08:24:06;5.70;;;3.40;;
47896;SDS011;39629;51.400;5.494;2023-04-15T08:29:09;8.38;;;3.55;;
47896;SDS011;39629;51.400;5.494;2023-04-15T08:34:10;6.13;;;3.75;;
47896;SDS011;39629;51.400;5.494;2023-04-15T08:39:12;5.50;;;3.20;;
47896;SDS011;39629;51.400;5.494;2023-04-15T08:44:15;6.90;;;4.00;;
47896;SDS011;39629;51.400;5.494;2023-04-15T08:49:19;6.40;;;3.70;;
47896;SDS011;39629;51.400;5.494;2023-04-15T08:54:22;5.68;;;3.80;;
47896;SDS011;39629;51.400;5.494;2023-04-15T08:59:25;6.20;;;3.50;;
47896;SDS011;39629;51.400;5.494;2023-04-15T09:04:27;4.32;;;2.85;;
47896;SDS011;39629;51.400;5.494;2023-04-15T09:09:28;4.90;;;2.47;;
47896;SDS011;39629;51.400;5.494;2023-04-15T09:14:31;5.18;;;2.40;;
47896;SDS011;39629;51.400;5.494;2023-04-15T09:19:34;5.28;;;2.97;;
47896;SDS011;39629;51.400;5.494;2023-04-15T09:24:36;4.85;;;3.10;;
47896;SDS011;39629;51.400;5.494;2023-04-15T09:29:41;3.90;;;2.57;;
47896;SDS011;39629;51.400;5.494;2023-04-15T09:34:42;3.37;;;2.03;;
47896;SDS011;39629;51.400;5.494;2023-04-15T09:39:45;6.80;;;3.28;;
47896;SDS011;39629;51.400;5.494;2023-04-15T09:44:50;5.72;;;2.75;;
47896;SDS011;39629;51.400;5.494;2023-04-15T09:49:54;5.27;;;2.53;;
47896;SDS011;39629;51.400;5.494;2023-04-15T09:54:57;5.93;;;2.55;;
47896;SDS011;39629;51.400;5.494;2023-04-15T10:00:01;3.30;;;2.20;;
47896;SDS011;39629;51.400;5.494;2023-04-15T10:05:07;4.32;;;2.40;;
47896;SDS011;39629;51.400;5.494;2023-04-15T10:10:12;5.18;;;2.28;;
47896;SDS011;39629;51.400;5.494;2023-04-15T10:15:16;3.17;;;1.73;;
47896;SDS011;39629;51.400;5.494;2023-04-15T10:20:19;3.67;;;1.90;;
47896;SDS011;39629;51.400;5.494;2023-04-15T10:25:22;3.40;;;1.90;;
47896;SDS011;39629;51.400;5.494;2023-04-15T10:30:28;3.97;;;2.50;;
47896;SDS011;39629;51.400;5.494;2023-04-15T10:35:31;5.28;;;2.70;;
47896;SDS011;39629;51.400;5.494;2023-04-15T10:40:34;3.10;;;2.05;;
47896;SDS011;39629;51.400;5.494;2023-04-15T10:45:38;4.93;;;2.40;;
47896;SDS011;39629;51.400;5.494;2023-04-15T10:50:39;3.72;;;1.95;;
47896;SDS011;39629;51.400;5.494;2023-04-15T10:55:41;2.45;;;1.60;;
47896;SDS011;39629;51.400;5.494;2023-04-15T11:00:46;2.33;;;1.33;;
47896;SDS011;39629;51.400;5.494;2023-04-15T11:05:51;2.60;;;1.40;;
47896;SDS011;39629;51.400;5.494;2023-04-15T11:10:54;2.20;;;1.30;;
47896;SDS011;39629;51.400;5.494;2023-04-15T11:16:01;3.58;;;1.30;;
47896;SDS011;39629;51.400;5.494;2023-04-15T11:21:04;3.13;;;1.30;;
47896;SDS011;39629;51.400;5.494;2023-04-15T11:31:12;3.00;;;1.05;;
47896;SDS011;39629;51.400;5.494;2023-04-15T11:36:15;2.70;;;1.25;;
47896;SDS011;39629;51.400;5.494;2023-04-15T11:41:19;2.83;;;1.40;;
47896;SDS011;39629;51.400;5.494;2023-04-15T11:46:27;2.95;;;1.50;;
47896;SDS011;39629;51.400;5.494;2023-04-15T11:51:31;3.20;;;1.50;;
47896;SDS011;39629;51.400;5.494;2023-04-15T11:56:33;2.53;;;1.60;;
47896;SDS011;39629;51.400;5.494;2023-04-15T12:01:37;2.77;;;1.57;;
47896;SDS011;39629;51.400;5.494;2023-04-15T12:06:41;5.32;;;1.60;;
47896;SDS011;39629;51.400;5.494;2023-04-15T12:11:44;3.25;;;1.40;;
47896;SDS011;39629;51.400;5.494;2023-04-15T12:21:50;2.97;;;1.30;;
47896;SDS011;39629;51.400;5.494;2023-04-15T12:26:54;1.90;;;1.10;;
47896;SDS011;39629;51.400;5.494;2023-04-15T12:32:03;2.92;;;1.30;;
47896;SDS011;39629;51.400;5.494;2023-04-15T12:37:07;2.50;;;1.27;;
47896;SDS011;39629;51.400;5.494;2023-04-15T12:42:10;1.88;;;1.23;;
47896;SDS011;39629;51.400;5.494;2023-04-15T12:47:13;3.10;;;1.37;;
47896;SDS011;39629;51.400;5.494;2023-04-15T12:52:15;2.28;;;1.33;;
47896;SDS011;39629;51.400;5.494;2023-04-15T12:57:16;3.70;;;1.67;;
47896;SDS011;39629;51.400;5.494;2023-04-15T13:02:19;2.97;;;1.50;;
47896;SDS011;39629;51.400;5.494;2023-04-15T13:07:24;2.88;;;1.75;;
47896;SDS011;39629;51.400;5.494;2023-04-15T13:12:26;2.33;;;1.50;;
47896;SDS011;39629;51.400;5.494;2023-04-15T13:17:29;2.05;;;1.42;;
47896;SDS011;39629;51.400;5.494;2023-04-15T13:22:30;2.60;;;1.20;;
47896;SDS011;39629;51.400;5.494;2023-04-15T13:27:32;3.05;;;1.30;;
47896;SDS011;39629;51.400;5.494;2023-04-15T13:32:35;2.90;;;1.40;;
47896;SDS011;39629;51.400;5.494;2023-04-15T13:37:37;2.75;;;1.20;;
47896;SDS011;39629;51.400;5.494;2023-04-15T13:42:39;2.30;;;1.30;;
47896;SDS011;39629;51.400;5.494;2023-04-15T13:47:43;6.45;;;1.05;;
47896;SDS011;39629;51.400;5.494;2023-04-15T13:52:44;1.65;;;1.00;;
47896;SDS011;39629;51.400;5.494;2023-04-15T13:57:46;3.80;;;1.30;;
47896;SDS011;39629;51.400;5.494;2023-04-15T14:02:49;1.83;;;1.10;;
47896;SDS011;39629;51.400;5.494;2023-04-15T14:07:50;3.80;;;1.00;;
47896;SDS011;39629;51.400;5.494;2023-04-15T14:12:52;1.85;;;1.00;;
47896;SDS011;39629;51.400;5.494;2023-04-15T14:17:55;1.45;;;0.88;;
47896;SDS011;39629;51.400;5.494;2023-04-15T14:22:57;2.83;;;1.15;;
47896;SDS011;39629;51.400;5.494;2023-04-15T14:28:00;2.15;;;0.93;;
47896;SDS011;39629;51.400;5.494;2023-04-15T14:33:03;1.37;;;0.80;;
47896;SDS011;39629;51.400;5.494;2023-04-15T14:38:05;1.88;;;1.10;;
47896;SDS011;39629;51.400;5.494;2023-04-15T14:43:09;1.85;;;0.82;;
47896;SDS011;39629;51.400;5.494;2023-04-15T14:48:12;1.48;;;0.80;;
47896;SDS011;39629;51.400;5.494;2023-04-15T14:53:14;1.58;;;0.80;;
47896;SDS011;39629;51.400;5.494;2023-04-15T14:58:15;3.05;;;0.90;;
47896;SDS011;39629;51.400;5.494;2023-04-15T15:03:18;2.20;;;0.90;;
47896;SDS011;39629;51.400;5.494;2023-04-15T15:08:20;1.80;;;0.60;;
47896;SDS011;39629;51.400;5.494;2023-04-15T15:13:21;1.13;;;0.60;;
47896;SDS011;39629;51.400;5.494;2023-04-15T15:18:25;1.50;;;0.70;;
47896;SDS011;39629;51.400;5.494;2023-04-15T15:23:27;2.07;;;0.70;;
47896;SDS011;39629;51.400;5.494;2023-04-15T15:28:28;1.48;;;0.70;;
47896;SDS011;39629;51.400;5.494;2023-04-15T15:33:31;1.80;;;0.50;;
47896;SDS011;39629;51.400;5.494;2023-04-15T15:38:33;1.70;;;0.60;;
47896;SDS011;39629;51.400;5.494;2023-04-15T15:43:34;1.00;;;0.50;;
47896;SDS011;39629;51.400;5.494;2023-04-15T15:48:37;3.33;;;0.60;;
47896;SDS011;39629;51.400;5.494;2023-04-15T15:53:39;4.27;;;0.70;;
47896;SDS011;39629;51.400;5.494;2023-04-15T15:58:40;0.82;;;0.40;;
47896;SDS011;39629;51.400;5.494;2023-04-15T16:03:45;3.03;;;0.70;;
47896;SDS011;39629;51.400;5.494;2023-04-15T16:08:46;1.10;;;0.60;;
47896;SDS011;39629;51.400;5.494;2023-04-15T16:13:48;1.40;;;0.70;;
47896;SDS011;39629;51.400;5.494;2023-04-15T16:18:51;2.08;;;0.70;;
47896;SDS011;39629;51.400;5.494;2023-04-15T16:23:53;2.93;;;0.60;;
47896;SDS011;39629;51.400;5.494;2023-04-15T16:28:54;2.20;;;0.73;;
47896;SDS011;39629;51.400;5.494;2023-04-15T16:33:57;1.10;;;0.70;;
47896;SDS011;39629;51.400;5.494;2023-04-15T16:38:59;1.77;;;0.88;;
47896;SDS011;39629;51.400;5.494;2023-04-15T16:44:00;2.63;;;0.80;;
47896;SDS011;39629;51.400;5.494;2023-04-15T16:49:03;5.50;;;0.90;;
47896;SDS011;39629;51.400;5.494;2023-04-15T16:54:05;3.17;;;0.83;;
47896;SDS011;39629;51.400;5.494;2023-04-15T16:59:07;2.45;;;0.65;;
47896;SDS011;39629;51.400;5.494;2023-04-15T17:04:10;2.75;;;0.60;;
47896;SDS011;39629;51.400;5.494;2023-04-15T17:09:11;2.08;;;0.60;;
47896;SDS011;39629;51.400;5.494;2023-04-15T17:14:13;2.67;;;0.50;;
47896;SDS011;39629;51.400;5.494;2023-04-15T17:19:16;2.38;;;0.47;;
47896;SDS011;39629;51.400;5.494;2023-04-15T17:24:17;2.45;;;0.70;;
47896;SDS011;39629;51.400;5.494;2023-04-15T17:29:19;2.85;;;0.50;;
47896;SDS011;39629;51.400;5.494;2023-04-15T17:34:22;4.22;;;0.60;;
47896;SDS011;39629;51.400;5.494;2023-04-15T17:39:23;2.83;;;0.70;;
47896;SDS011;39629;51.400;5.494;2023-04-15T17:44:25;3.85;;;0.85;;
47896;SDS011;39629;51.400;5.494;2023-04-15T17:49:28;3.70;;;0.82;;
47896;SDS011;39629;51.400;5.494;2023-04-15T17:54:30;3.37;;;1.07;;
47896;SDS011;39629;51.400;5.494;2023-04-15T17:59:31;3.17;;;0.70;;
47896;SDS011;39629;51.400;5.494;2023-04-15T18:04:35;2.50;;;0.63;;
47896;SDS011;39629;51.400;5.494;2023-04-15T18:09:36;2.70;;;0.80;;
47896;SDS011;39629;51.400;5.494;2023-04-15T18:14:38;3.25;;;0.80;;
47896;SDS011;39629;51.400;5.494;2023-04-15T18:19:41;6.97;;;1.23;;
47896;SDS011;39629;51.400;5.494;2023-04-15T18:24:44;5.95;;;0.90;;
47896;SDS011;39629;51.400;5.494;2023-04-15T18:29:49;3.80;;;1.00;;
47896;SDS011;39629;51.400;5.494;2023-04-15T18:34:52;2.97;;;0.90;;
47896;SDS011;39629;51.400;5.494;2023-04-15T18:39:54;4.90;;;1.50;;
47896;SDS011;39629;51.400;5.494;2023-04-15T18:44:56;4.43;;;1.38;;
47896;SDS011;39629;51.400;5.494;2023-04-15T18:49:59;4.28;;;1.20;;
47896;SDS011;39629;51.400;5.494;2023-04-15T18:55:00;4.55;;;1.20;;
47896;SDS011;39629;51.400;5.494;2023-04-15T19:00:03;2.65;;;0.90;;
47896;SDS011;39629;51.400;5.494;2023-04-15T19:05:06;2.60;;;0.90;;
47896;SDS011;39629;51.400;5.494;2023-04-15T19:10:09;2.63;;;1.00;;
47896;SDS011;39629;51.400;5.494;2023-04-15T19:15:10;3.72;;;0.80;;
47896;SDS011;39629;51.400;5.494;2023-04-15T19:20:13;4.00;;;1.23;;
47896;SDS011;39629;51.400;5.494;2023-04-15T19:25:15;7.10;;;1.00;;
47896;SDS011;39629;51.400;5.494;2023-04-15T19:30:17;4.15;;;0.80;;
47896;SDS011;39629;51.400;5.494;2023-04-15T19:35:21;3.88;;;0.90;;
47896;SDS011;39629;51.400;5.494;2023-04-15T19:40:23;4.57;;;1.00;;
47896;SDS011;39629;51.400;5.494;2023-04-15T19:45:25;4.38;;;0.90;;
47896;SDS011;39629;51.400;5.494;2023-04-15T19:50:27;3.60;;;0.90;;
47896;SDS011;39629;51.400;5.494;2023-04-15T19:55:29;8.32;;;1.10;;
47896;SDS011;39629;51.400;5.494;2023-04-15T20:00:31;4.88;;;1.08;;
47896;SDS011;39629;51.400;5.494;2023-04-15T20:05:33;3.90;;;0.95;;
47896;SDS011;39629;51.400;5.494;2023-04-15T20:10:35;4.72;;;0.90;;
47896;SDS011;39629;51.400;5.494;2023-04-15T20:15:37;5.22;;;0.90;;
47896;SDS011;39629;51.400;5.494;2023-04-15T20:20:40;9.35;;;1.30;;
47896;SDS011;39629;51.400;5.494;2023-04-15T20:25:41;8.13;;;1.10;;
47896;SDS011;39629;51.400;5.494;2023-04-15T20:30:43;3.22;;;1.00;;
47896;SDS011;39629;51.400;5.494;2023-04-15T20:35:46;3.13;;;0.90;;
47896;SDS011;39629;51.400;5.494;2023-04-15T20:40:48;5.28;;;1.35;;
47896;SDS011;39629;51.400;5.494;2023-04-15T20:45:49;6.10;;;0.90;;
47896;SDS011;39629;51.400;5.494;2023-04-15T20:50:54;4.90;;;0.80;;
47896;SDS011;39629;51.400;5.494;2023-04-15T20:55:55;4.75;;;1.00;;
47896;SDS011;39629;51.400;5.494;2023-04-15T21:00:59;2.97;;;1.20;;
47896;SDS011;39629;51.400;5.494;2023-04-15T21:06:02;7.10;;;1.20;;
47896;SDS011;39629;51.400;5.494;2023-04-15T21:11:04;5.78;;;1.00;;
47896;SDS011;39629;51.400;5.494;2023-04-15T21:16:05;6.80;;;1.10;;
47896;SDS011;39629;51.400;5.494;2023-04-15T21:21:08;5.20;;;2.03;;
47896;SDS011;39629;51.400;5.494;2023-04-15T21:26:10;4.60;;;1.00;;
47896;SDS011;39629;51.400;5.494;2023-04-15T21:31:11;4.28;;;1.20;;
47896;SDS011;39629;51.400;5.494;2023-04-15T21:36:14;8.52;;;1.08;;
47896;SDS011;39629;51.400;5.494;2023-04-15T21:41:16;5.13;;;1.10;;
47896;SDS011;39629;51.400;5.494;2023-04-15T21:46:17;6.60;;;1.17;;
47896;SDS011;39629;51.400;5.494;2023-04-15T21:51:20;3.63;;;0.90;;
47896;SDS011;39629;51.400;5.494;2023-04-15T21:56:22;4.68;;;1.00;;
47896;SDS011;39629;51.400;5.494;2023-04-15T22:01:25;5.80;;;1.40;;
47896;SDS011;39629;51.400;5.494;2023-04-15T22:06:28;5.03;;;1.13;;
47896;SDS011;39629;51.400;5.494;2023-04-15T22:11:30;9.35;;;1.70;;
47896;SDS011;39629;51.400;5.494;2023-04-15T22:16:32;4.72;;;1.30;;
47896;SDS011;39629;51.400;5.494;2023-04-15T22:21:35;3.63;;;1.45;;
47896;SDS011;39629;51.400;5.494;2023-04-15T22:26:37;4.65;;;1.20;;
47896;SDS011;39629;51.400;5.494;2023-04-15T22:31:38;5.53;;;1.60;;
47896;SDS011;39629;51.400;5.494;2023-04-15T22:36:42;5.25;;;1.58;;
47896;SDS011;39629;51.400;5.494;2023-04-15T22:41:44;5.05;;;1.50;;
47896;SDS011;39629;51.400;5.494;2023-04-15T22:46:46;5.47;;;1.77;;
47896;SDS011;39629;51.400;5.494;2023-04-15T22:56:53;5.20;;;1.70;;
47896;SDS011;39629;51.400;5.494;2023-04-15T23:01:55;2.22;;;1.40;;
47896;SDS011;39629;51.400;5.494;2023-04-15T23:06:59;6.30;;;1.73;;
47896;SDS011;39629;51.400;5.494;2023-04-15T23:12:01;4.93;;;1.58;;
47896;SDS011;39629;51.400;5.494;2023-04-15T23:17:02;3.42;;;1.52;;
47896;SDS011;39629;51.400;5.494;2023-04-15T23:22:05;5.07;;;1.50;;
47896;SDS011;39629;51.400;5.494;2023-04-15T23:27:09;3.67;;;1.30;;
47896;SDS011;39629;51.400;5.494;2023-04-15T23:32:11;7.32;;;1.60;;
47896;SDS011;39629;51.400;5.494;2023-04-15T23:37:15;3.28;;;1.50;;
47896;SDS011;39629;51.400;5.494;2023-04-15T23:42:17;4.30;;;1.70;;
47896;SDS011;39629;51.400;5.494;2023-04-15T23:47:21;5.93;;;1.60;;
47896;SDS011;39629;51.400;5.494;2023-04-15T23:52:24;8.25;;;2.63;;
47896;SDS011;39629;51.400;5.494;2023-04-15T23:57:26;4.97;;;1.80;;
